sensor_id;sensor_type;location;lat;lon;timestamp;P1;durP1;ratioP1;P2;durP2;ratioP2
18267;SDS011;9260;49.998;19.880;2023-03-13T00:03:53;193.07;;;84.87;;
18267;SDS011;9260;49.998;19.880;2023-03-13T00:13:58;191.53;;;81.73;;
18267;SDS011;9260;49.998;19.880;2023-03-13T00:24:06;193.50;;;86.73;;
18267;SDS011;9260;49.998;19.880;2023-03-13T00:34:12;194.83;;;82.33;;
18267;SDS011;9260;49.998;19.880;2023-03-13T00:44:18;194.27;;;87.67;;
18267;SDS011;9260;49.998;19.880;2023-03-13T00:54:22;192.87;;;85.97;;
18267;SDS011;9260;49.998;19.880;2023-03-13T01:04:27;193.80;;;85.77;;
18267;SDS011;9260;49.998;19.880;2023-03-13T01:14:31;189.00;;;83.07;;
18267;SDS011;9260;49.998;19.880;2023-03-13T01:24:36;192.90;;;84.03;;
18267;SDS011;9260;49.998;19.880;2023-03-13T01:34:40;193.10;;;87.50;;
18267;SDS011;9260;49.998;19.880;2023-03-13T01:44:51;197.87;;;88.27;;
18267;SDS011;9260;49.998;19.880;2023-03-13T01:55:00;197.00;;;87.57;;
18267;SDS011;9260;49.998;19.880;2023-03-13T02:05:13;197.10;;;84.07;;
18267;SDS011;9260;49.998;19.880;2023-03-13T02:15:21;200.20;;;85.47;;
18267;SDS011;9260;49.998;19.880;2023-03-13T02:25:35;200.97;;;89.33;;
18267;SDS011;9260;49.998;19.880;2023-03-13T02:35:45;203.00;;;85.70;;
18267;SDS011;9260;49.998;19.880;2023-03-13T02:46:02;195.07;;;85.70;;
18267;SDS011;9260;49.998;19.880;2023-03-13T02:56:12;199.07;;;87.97;;
18267;SDS011;9260;49.998;19.880;2023-03-13T03:06:22;194.57;;;85.67;;
18267;SDS011;9260;49.998;19.880;2023-03-13T03:16:28;197.03;;;86.53;;
18267;SDS011;9260;49.998;19.880;2023-03-13T03:26:33;194.37;;;85.93;;
18267;SDS011;9260;49.998;19.880;2023-03-13T03:36:44;195.33;;;86.10;;
18267;SDS011;9260;49.998;19.880;2023-03-13T03:46:50;198.73;;;87.43;;
18267;SDS011;9260;49.998;19.880;2023-03-13T03:56:55;197.17;;;88.23;;
18267;SDS011;9260;49.998;19.880;2023-03-13T04:07:00;197.73;;;87.10;;
18267;SDS011;9260;49.998;19.880;2023-03-13T04:17:06;199.60;;;86.93;;
18267;SDS011;9260;49.998;19.880;2023-03-13T04:27:12;200.93;;;87.53;;
18267;SDS011;9260;49.998;19.880;2023-03-13T04:37:18;199.27;;;83.77;;
18267;SDS011;9260;49.998;19.880;2023-03-13T04:47:35;203.90;;;87.10;;
18267;SDS011;9260;49.998;19.880;2023-03-13T04:58:02;201.67;;;86.67;;
18267;SDS011;9260;49.998;19.880;2023-03-13T05:08:29;204.93;;;86.23;;
18267;SDS011;9260;49.998;19.880;2023-03-13T05:18:57;200.17;;;85.17;;
18267;SDS011;9260;49.998;19.880;2023-03-13T05:29:16;205.83;;;89.20;;
18267;SDS011;9260;49.998;19.880;2023-03-13T05:39:33;205.53;;;90.37;;
18267;SDS011;9260;49.998;19.880;2023-03-13T05:49:55;209.20;;;92.23;;
18267;SDS011;9260;49.998;19.880;2023-03-13T06:00:18;205.27;;;90.07;;
18267;SDS011;9260;49.998;19.880;2023-03-13T06:10:37;207.63;;;89.17;;
18267;SDS011;9260;49.998;19.880;2023-03-13T06:20:41;209.40;;;90.40;;
18267;SDS011;9260;49.998;19.880;2023-03-13T06:30:47;204.23;;;88.07;;
18267;SDS011;9260;49.998;19.880;2023-03-13T06:40:51;207.20;;;87.87;;
18267;SDS011;9260;49.998;19.880;2023-03-13T06:50:56;212.83;;;90.67;;
18267;SDS011;9260;49.998;19.880;2023-03-13T07:01:04;209.90;;;89.83;;
18267;SDS011;9260;49.998;19.880;2023-03-13T07:11:12;227.03;;;110.17;;
18267;SDS011;9260;49.998;19.880;2023-03-13T07:21:17;216.30;;;96.50;;
18267;SDS011;9260;49.998;19.880;2023-03-13T07:31:22;214.77;;;94.00;;
18267;SDS011;9260;49.998;19.880;2023-03-13T07:41:27;208.83;;;92.83;;
18267;SDS011;9260;49.998;19.880;2023-03-13T07:51:32;218.77;;;97.13;;
18267;SDS011;9260;49.998;19.880;2023-03-13T08:01:44;213.33;;;96.73;;
18267;SDS011;9260;49.998;19.880;2023-03-13T08:11:49;214.93;;;96.20;;
18267;SDS011;9260;49.998;19.880;2023-03-13T08:21:53;217.90;;;101.83;;
18267;SDS011;9260;49.998;19.880;2023-03-13T08:31:58;219.23;;;102.90;;
18267;SDS011;9260;49.998;19.880;2023-03-13T08:42:03;219.10;;;100.77;;
18267;SDS011;9260;49.998;19.880;2023-03-13T08:52:08;216.20;;;100.37;;
18267;SDS011;9260;49.998;19.880;2023-03-13T09:23:50;222.13;;;109.90;;
18267;SDS011;9260;49.998;19.880;2023-03-13T10:12:34;215.38;;;117.05;;
18267;SDS011;9260;49.998;19.880;2023-03-13T10:22:45;218.35;;;121.20;;
18267;SDS011;9260;49.998;19.880;2023-03-13T10:32:54;219.00;;;128.10;;
18267;SDS011;9260;49.998;19.880;2023-03-13T10:43:02;215.55;;;126.90;;
18267;SDS011;9260;49.998;19.880;2023-03-13T10:53:23;212.27;;;130.35;;
18267;SDS011;9260;49.998;19.880;2023-03-13T11:03:34;213.25;;;129.40;;
18267;SDS011;9260;49.998;19.880;2023-03-13T11:13:40;219.75;;;129.13;;
18267;SDS011;9260;49.998;19.880;2023-03-13T11:23:46;223.40;;;122.90;;
18267;SDS011;9260;49.998;19.880;2023-03-13T11:33:58;216.13;;;110.13;;
18267;SDS011;9260;49.998;19.880;2023-03-13T11:44:12;220.47;;;109.53;;
18267;SDS011;9260;49.998;19.880;2023-03-13T11:54:49;214.87;;;100.93;;
18267;SDS011;9260;49.998;19.880;2023-03-13T12:05:15;223.27;;;103.77;;
18267;SDS011;9260;49.998;19.880;2023-03-13T12:15:23;213.73;;;92.73;;
18267;SDS011;9260;49.998;19.880;2023-03-13T12:25:32;220.40;;;100.40;;
18267;SDS011;9260;49.998;19.880;2023-03-13T12:35:42;211.23;;;90.77;;
18267;SDS011;9260;49.998;19.880;2023-03-13T12:45:53;213.87;;;92.83;;
18267;SDS011;9260;49.998;19.880;2023-03-13T12:56:29;218.97;;;98.10;;
18267;SDS011;9260;49.998;19.880;2023-03-13T13:06:55;217.33;;;98.20;;
18267;SDS011;9260;49.998;19.880;2023-03-13T13:17:13;219.07;;;96.77;;
18267;SDS011;9260;49.998;19.880;2023-03-13T13:27:38;218.33;;;98.57;;
18267;SDS011;9260;49.998;19.880;2023-03-13T13:37:49;212.63;;;95.00;;
18267;SDS011;9260;49.998;19.880;2023-03-13T13:58:37;216.17;;;93.87;;
18267;SDS011;9260;49.998;19.880;2023-03-13T14:08:47;214.03;;;96.07;;
18267;SDS011;9260;49.998;19.880;2023-03-13T14:18:57;219.33;;;96.97;;
18267;SDS011;9260;49.998;19.880;2023-03-13T14:29:01;224.90;;;99.43;;
18267;SDS011;9260;49.998;19.880;2023-03-13T14:39:11;219.57;;;100.90;;
18267;SDS011;9260;49.998;19.880;2023-03-13T14:49:21;209.30;;;89.57;;
18267;SDS011;9260;49.998;19.880;2023-03-13T14:59:31;217.33;;;95.93;;
18267;SDS011;9260;49.998;19.880;2023-03-13T15:09:40;211.07;;;88.67;;
18267;SDS011;9260;49.998;19.880;2023-03-13T15:19:49;213.03;;;93.73;;
18267;SDS011;9260;49.998;19.880;2023-03-13T15:29:55;212.63;;;93.33;;
18267;SDS011;9260;49.998;19.880;2023-03-13T15:40:00;208.43;;;89.00;;
18267;SDS011;9260;49.998;19.880;2023-03-13T15:50:09;204.80;;;86.40;;
18267;SDS011;9260;49.998;19.880;2023-03-13T16:00:17;208.10;;;89.93;;
18267;SDS011;9260;49.998;19.880;2023-03-13T16:10:23;218.07;;;90.40;;
18267;SDS011;9260;49.998;19.880;2023-03-13T16:20:32;224.60;;;93.40;;
18267;SDS011;9260;49.998;19.880;2023-03-13T16:30:36;228.33;;;110.10;;
18267;SDS011;9260;49.998;19.880;2023-03-13T16:40:43;212.60;;;89.53;;
18267;SDS011;9260;49.998;19.880;2023-03-13T16:50:47;258.50;;;128.53;;
18267;SDS011;9260;49.998;19.880;2023-03-13T17:00:52;220.43;;;97.70;;
18267;SDS011;9260;49.998;19.880;2023-03-13T17:11:06;204.70;;;88.27;;
18267;SDS011;9260;49.998;19.880;2023-03-13T17:21:18;202.43;;;90.37;;
18267;SDS011;9260;49.998;19.880;2023-03-13T17:31:24;201.90;;;87.50;;
18267;SDS011;9260;49.998;19.880;2023-03-13T17:41:31;199.50;;;90.67;;
18267;SDS011;9260;49.998;19.880;2023-03-13T17:51:36;197.57;;;92.23;;
18267;SDS011;9260;49.998;19.880;2023-03-13T18:01:43;202.77;;;96.37;;
18267;SDS011;9260;49.998;19.880;2023-03-13T18:11:47;210.93;;;104.03;;
18267;SDS011;9260;49.998;19.880;2023-03-13T18:21:53;197.50;;;87.10;;
18267;SDS011;9260;49.998;19.880;2023-03-13T18:31:57;207.20;;;93.63;;
18267;SDS011;9260;49.998;19.880;2023-03-13T18:42:03;206.63;;;91.17;;
18267;SDS011;9260;49.998;19.880;2023-03-13T18:52:08;206.67;;;90.07;;
18267;SDS011;9260;49.998;19.880;2023-03-13T19:02:15;203.10;;;90.47;;
18267;SDS011;9260;49.998;19.880;2023-03-13T19:12:20;200.93;;;88.33;;
18267;SDS011;9260;49.998;19.880;2023-03-13T19:22:25;204.27;;;95.20;;
18267;SDS011;9260;49.998;19.880;2023-03-13T19:32:28;193.57;;;85.80;;
18267;SDS011;9260;49.998;19.880;2023-03-13T19:42:33;209.50;;;94.80;;
18267;SDS011;9260;49.998;19.880;2023-03-13T19:52:37;207.00;;;94.40;;
18267;SDS011;9260;49.998;19.880;2023-03-13T20:02:42;193.00;;;85.40;;
18267;SDS011;9260;49.998;19.880;2023-03-13T20:12:46;197.17;;;88.70;;
18267;SDS011;9260;49.998;19.880;2023-03-13T20:22:51;192.23;;;83.30;;
18267;SDS011;9260;49.998;19.880;2023-03-13T20:32:56;198.13;;;87.97;;
18267;SDS011;9260;49.998;19.880;2023-03-13T20:43:02;200.10;;;88.77;;
18267;SDS011;9260;49.998;19.880;2023-03-13T20:53:06;191.47;;;82.40;;
18267;SDS011;9260;49.998;19.880;2023-03-13T21:03:11;195.90;;;83.83;;
18267;SDS011;9260;49.998;19.880;2023-03-13T21:13:15;201.83;;;87.70;;
18267;SDS011;9260;49.998;19.880;2023-03-13T21:23:21;200.53;;;91.80;;
18267;SDS011;9260;49.998;19.880;2023-03-13T21:33:25;197.53;;;87.00;;
18267;SDS011;9260;49.998;19.880;2023-03-13T21:43:29;200.63;;;104.07;;
18267;SDS011;9260;49.998;19.880;2023-03-13T21:53:33;201.37;;;90.80;;
18267;SDS011;9260;49.998;19.880;2023-03-13T22:03:38;196.67;;;87.77;;
18267;SDS011;9260;49.998;19.880;2023-03-13T22:13:42;189.87;;;84.60;;
18267;SDS011;9260;49.998;19.880;2023-03-13T22:23:47;190.17;;;85.50;;
18267;SDS011;9260;49.998;19.880;2023-03-13T22:33:51;190.67;;;88.47;;
18267;SDS011;9260;49.998;19.880;2023-03-13T22:43:55;191.17;;;82.87;;
18267;SDS011;9260;49.998;19.880;2023-03-13T22:53:59;186.90;;;85.63;;
18267;SDS011;9260;49.998;19.880;2023-03-13T23:04:04;193.03;;;87.30;;
18267;SDS011;9260;49.998;19.880;2023-03-13T23:14:07;194.83;;;94.53;;
18267;SDS011;9260;49.998;19.880;2023-03-13T23:24:12;196.27;;;89.33;;
18267;SDS011;9260;49.998;19.880;2023-03-13T23:34:16;192.17;;;87.23;;
18267;SDS011;9260;49.998;19.880;2023-03-13T23:44:23;193.80;;;85.63;;
18267;SDS011;9260;49.998;19.880;2023-03-13T23:54:27;193.30;;;85.13;;
